sensor_id;sensor_type;location;lat;lon;timestamp;pressure;altitude;pressure_sealevel;temperature;humidity
74798;BME280;63326;45.088;7.658;2023-10-19T00:00:36;98148.69;;;10.57;100.00
74798;BME280;63326;45.088;7.658;2023-10-19T00:03:06;98141.84;;;10.48;100.00
74798;BME280;63326;45.088;7.658;2023-10-19T00:05:33;98141.22;;;10.52;100.00
74798;BME280;63326;45.088;7.658;2023-10-19T00:08:00;98114.75;;;10.43;100.00
74798;BME280;63326;45.088;7.658;2023-10-19T00:10:32;98105.25;;;10.40;100.00
74798;BME280;63326;45.088;7.658;2023-10-19T00:13:02;98121.22;;;10.55;100.00
74798;BME280;63326;45.088;7.658;2023-10-19T00:15:32;98102.81;;;10.45;100.00
74798;BME280;63326;45.088;7.658;2023-10-19T00:18:07;98118.75;;;10.60;100.00
74798;BME280;63326;45.088;7.658;2023-10-19T00:20:44;98111.47;;;10.47;100.00
74798;BME280;63326;45.088;7.658;2023-10-19T00:23:26;98129.06;;;10.57;100.00
74798;BME280;63326;45.088;7.658;2023-10-19T00:25:59;98076.50;;;10.28;100.00
74798;BME280;63326;45.088;7.658;2023-10-19T00:28:31;98121.59;;;10.52;100.00
74798;BME280;63326;45.088;7.658;2023-10-19T00:31:02;98118.09;;;10.45;100.00
74798;BME280;63326;45.088;7.658;2023-10-19T00:33:35;98113.72;;;10.44;100.00
74798;BME280;63326;45.088;7.658;2023-10-19T00:36:06;98122.84;;;10.49;100.00
74798;BME280;63326;45.088;7.658;2023-10-19T00:38:36;98083.94;;;10.25;100.00
74798;BME280;63326;45.088;7.658;2023-10-19T00:41:07;98094.91;;;10.37;100.00
74798;BME280;63326;45.088;7.658;2023-10-19T00:43:55;98109.81;;;10.46;100.00
74798;BME280;63326;45.088;7.658;2023-10-19T00:46:30;98129.28;;;10.55;100.00
74798;BME280;63326;45.088;7.658;2023-10-19T00:49:11;98126.75;;;10.47;100.00
74798;BME280;63326;45.088;7.658;2023-10-19T00:51:46;98123.44;;;10.45;100.00
74798;BME280;63326;45.088;7.658;2023-10-19T00:54:34;98110.41;;;10.42;100.00
74798;BME280;63326;45.088;7.658;2023-10-19T00:57:03;98127.81;;;10.59;100.00
74798;BME280;63326;45.088;7.658;2023-10-19T00:59:41;98122.03;;;10.56;100.00
74798;BME280;63326;45.088;7.658;2023-10-19T01:02:15;98104.84;;;10.43;100.00
74798;BME280;63326;45.088;7.658;2023-10-19T01:04:57;98105.28;;;10.47;100.00
74798;BME280;63326;45.088;7.658;2023-10-19T01:07:28;98101.16;;;10.44;100.00
74798;BME280;63326;45.088;7.658;2023-10-19T01:10:00;98085.22;;;10.36;100.00
74798;BME280;63326;45.088;7.658;2023-10-19T01:12:32;98100.09;;;10.39;100.00
74798;BME280;63326;45.088;7.658;2023-10-19T01:17:37;98092.25;;;10.37;100.00
74798;BME280;63326;45.088;7.658;2023-10-19T01:28:10;98075.28;;;10.30;100.00
74798;BME280;63326;45.088;7.658;2023-10-19T01:30:44;98060.81;;;10.24;100.00
74798;BME280;63326;45.088;7.658;2023-10-19T01:33:11;98043.25;;;10.22;100.00
74798;BME280;63326;45.088;7.658;2023-10-19T01:35:42;98042.88;;;10.25;100.00
74798;BME280;63326;45.088;7.658;2023-10-19T01:38:28;98056.69;;;10.29;100.00
74798;BME280;63326;45.088;7.658;2023-10-19T01:41:02;98053.41;;;10.27;100.00
74798;BME280;63326;45.088;7.658;2023-10-19T01:43:44;98048.63;;;10.22;100.00
74798;BME280;63326;45.088;7.658;2023-10-19T01:46:13;98039.31;;;10.18;100.00
74798;BME280;63326;45.088;7.658;2023-10-19T01:48:50;98039.78;;;10.28;100.00
74798;BME280;63326;45.088;7.658;2023-10-19T01:51:25;97973.84;;;9.99;100.00
74798;BME280;63326;45.088;7.658;2023-10-19T01:53:56;98017.50;;;10.34;100.00
74798;BME280;63326;45.088;7.658;2023-10-19T01:56:24;97986.25;;;10.13;100.00
74798;BME280;63326;45.088;7.658;2023-10-19T01:58:51;98007.34;;;10.16;100.00
74798;BME280;63326;45.088;7.658;2023-10-19T02:01:18;97984.44;;;10.14;100.00
74798;BME280;63326;45.088;7.658;2023-10-19T02:03:47;97999.50;;;10.21;100.00
74798;BME280;63326;45.088;7.658;2023-10-19T02:06:15;98006.50;;;10.22;100.00
74798;BME280;63326;45.088;7.658;2023-10-19T02:08:51;98014.78;;;10.28;100.00
74798;BME280;63326;45.088;7.658;2023-10-19T02:11:20;98008.59;;;10.34;100.00
74798;BME280;63326;45.088;7.658;2023-10-19T02:13:55;98002.22;;;10.35;100.00
74798;BME280;63326;45.088;7.658;2023-10-19T02:16:22;97992.28;;;10.29;100.00
74798;BME280;63326;45.088;7.658;2023-10-19T02:18:49;97973.91;;;10.19;100.00
74798;BME280;63326;45.088;7.658;2023-10-19T02:21:18;97970.81;;;10.15;100.00
74798;BME280;63326;45.088;7.658;2023-10-19T02:23:49;97985.03;;;10.16;100.00
74798;BME280;63326;45.088;7.658;2023-10-19T02:26:20;98006.34;;;10.37;100.00
74798;BME280;63326;45.088;7.658;2023-10-19T02:28:52;97992.47;;;10.20;100.00
74798;BME280;63326;45.088;7.658;2023-10-19T02:31:20;98002.78;;;10.23;100.00
74798;BME280;63326;45.088;7.658;2023-10-19T02:33:54;98004.22;;;10.19;100.00
74798;BME280;63326;45.088;7.658;2023-10-19T02:36:27;97997.41;;;10.17;100.00
74798;BME280;63326;45.088;7.658;2023-10-19T02:38:59;97968.50;;;10.12;100.00
74798;BME280;63326;45.088;7.658;2023-10-19T02:41:26;97954.06;;;10.07;100.00
74798;BME280;63326;45.088;7.658;2023-10-19T02:43:54;97968.91;;;10.09;100.00
74798;BME280;63326;45.088;7.658;2023-10-19T02:46:39;97953.00;;;10.01;100.00
74798;BME280;63326;45.088;7.658;2023-10-19T02:49:08;97956.09;;;9.98;100.00
74798;BME280;63326;45.088;7.658;2023-10-19T02:51:41;97965.59;;;10.01;100.00
74798;BME280;63326;45.088;7.658;2023-10-19T02:54:12;97950.91;;;9.90;100.00
74798;BME280;63326;45.088;7.658;2023-10-19T02:56:51;97974.91;;;10.11;100.00
74798;BME280;63326;45.088;7.658;2023-10-19T02:59:21;97939.16;;;9.98;100.00
74798;BME280;63326;45.088;7.658;2023-10-19T03:01:53;97944.53;;;9.98;100.00
74798;BME280;63326;45.088;7.658;2023-10-19T03:04:49;97954.22;;;9.99;100.00
74798;BME280;63326;45.088;7.658;2023-10-19T03:07:16;97943.72;;;9.97;100.00
74798;BME280;63326;45.088;7.658;2023-10-19T03:09:44;97943.09;;;9.95;100.00
74798;BME280;63326;45.088;7.658;2023-10-19T03:12:21;97945.38;;;9.98;100.00
74798;BME280;63326;45.088;7.658;2023-10-19T03:14:52;97945.56;;;9.96;100.00
74798;BME280;63326;45.088;7.658;2023-10-19T03:17:21;97929.88;;;10.00;100.00
74798;BME280;63326;45.088;7.658;2023-10-19T03:19:47;97930.75;;;10.07;100.00
74798;BME280;63326;45.088;7.658;2023-10-19T03:22:15;97933.00;;;10.04;100.00
74798;BME280;63326;45.088;7.658;2023-10-19T03:24:43;97919.78;;;9.95;100.00
74798;BME280;63326;45.088;7.658;2023-10-19T03:27:15;97921.44;;;10.03;100.00
74798;BME280;63326;45.088;7.658;2023-10-19T03:29:45;97910.91;;;9.95;100.00
74798;BME280;63326;45.088;7.658;2023-10-19T03:32:13;97917.75;;;10.04;100.00
74798;BME280;63326;45.088;7.658;2023-10-19T03:34:40;97887.56;;;9.89;100.00
74798;BME280;63326;45.088;7.658;2023-10-19T03:37:13;97910.09;;;10.01;100.00
74798;BME280;63326;45.088;7.658;2023-10-19T03:39:41;97917.09;;;10.02;100.00
74798;BME280;63326;45.088;7.658;2023-10-19T03:42:08;97907.00;;;10.04;100.00
74798;BME280;63326;45.088;7.658;2023-10-19T03:44:36;97902.25;;;10.00;100.00
74798;BME280;63326;45.088;7.658;2023-10-19T03:47:22;97891.09;;;9.96;100.00
74798;BME280;63326;45.088;7.658;2023-10-19T03:49:53;97901.84;;;9.96;100.00
74798;BME280;63326;45.088;7.658;2023-10-19T03:52:20;97904.72;;;9.94;100.00
74798;BME280;63326;45.088;7.658;2023-10-19T03:54:48;97900.59;;;9.99;100.00
74798;BME280;63326;45.088;7.658;2023-10-19T03:57:16;97895.22;;;9.99;100.00
74798;BME280;63326;45.088;7.658;2023-10-19T03:59:49;97863.22;;;9.77;100.00
74798;BME280;63326;45.088;7.658;2023-10-19T04:02:17;97874.75;;;9.78;100.00
74798;BME280;63326;45.088;7.658;2023-10-19T04:04:48;97855.78;;;9.79;100.00
74798;BME280;63326;45.088;7.658;2023-10-19T04:07:15;97877.66;;;9.89;100.00
74798;BME280;63326;45.088;7.658;2023-10-19T04:09:49;97885.31;;;9.99;100.00
74798;BME280;63326;45.088;7.658;2023-10-19T04:12:26;97884.31;;;9.93;100.00
74798;BME280;63326;45.088;7.658;2023-10-19T04:14:55;97887.19;;;9.99;100.00
74798;BME280;63326;45.088;7.658;2023-10-19T04:17:35;97869.66;;;9.96;100.00
74798;BME280;63326;45.088;7.658;2023-10-19T04:20:03;97866.13;;;9.89;100.00
74798;BME280;63326;45.088;7.658;2023-10-19T04:22:56;97853.53;;;9.89;100.00
74798;BME280;63326;45.088;7.658;2023-10-19T04:25:38;97833.09;;;9.82;100.00
74798;BME280;63326;45.088;7.658;2023-10-19T04:28:05;97844.06;;;10.07;100.00
74798;BME280;63326;45.088;7.658;2023-10-19T04:30:31;97803.41;;;9.83;100.00
74798;BME280;63326;45.088;7.658;2023-10-19T04:32:59;97828.38;;;9.97;100.00
74798;BME280;63326;45.088;7.658;2023-10-19T04:35:28;97800.31;;;9.86;100.00
74798;BME280;63326;45.088;7.658;2023-10-19T04:38:00;97834.38;;;10.19;100.00
74798;BME280;63326;45.088;7.658;2023-10-19T04:40:27;97814.56;;;10.07;100.00
74798;BME280;63326;45.088;7.658;2023-10-19T04:42:54;97773.50;;;9.73;100.00
74798;BME280;63326;45.088;7.658;2023-10-19T04:45:22;97785.47;;;9.90;100.00
74798;BME280;63326;45.088;7.658;2023-10-19T04:47:52;97805.91;;;9.98;100.00
74798;BME280;63326;45.088;7.658;2023-10-19T04:50:19;97816.00;;;10.03;100.00
74798;BME280;63326;45.088;7.658;2023-10-19T04:52:47;97784.03;;;9.94;100.00
74798;BME280;63326;45.088;7.658;2023-10-19T04:55:14;97797.22;;;9.96;100.00
74798;BME280;63326;45.088;7.658;2023-10-19T04:57:41;97752.88;;;9.87;100.00
74798;BME280;63326;45.088;7.658;2023-10-19T05:00:08;97793.72;;;10.15;100.00
74798;BME280;63326;45.088;7.658;2023-10-19T05:02:40;97743.38;;;9.98;100.00
74798;BME280;63326;45.088;7.658;2023-10-19T05:05:08;97771.84;;;10.12;100.00
74798;BME280;63326;45.088;7.658;2023-10-19T05:07:35;97776.00;;;10.14;100.00
74798;BME280;63326;45.088;7.658;2023-10-19T05:10:04;97765.03;;;10.09;100.00
74798;BME280;63326;45.088;7.658;2023-10-19T05:12:32;97745.88;;;9.86;100.00
74798;BME280;63326;45.088;7.658;2023-10-19T05:14:58;97734.13;;;9.74;100.00
74798;BME280;63326;45.088;7.658;2023-10-19T05:17:25;97740.47;;;9.73;100.00
74798;BME280;63326;45.088;7.658;2023-10-19T05:19:54;97785.88;;;10.07;100.00
74798;BME280;63326;45.088;7.658;2023-10-19T05:22:20;97740.50;;;9.86;100.00
74798;BME280;63326;45.088;7.658;2023-10-19T05:24:48;97704.00;;;9.65;100.00
74798;BME280;63326;45.088;7.658;2023-10-19T05:27:15;97736.78;;;9.87;100.00
74798;BME280;63326;45.088;7.658;2023-10-19T05:29:43;97749.97;;;9.88;100.00
74798;BME280;63326;45.088;7.658;2023-10-19T05:32:09;97751.41;;;9.91;100.00
74798;BME280;63326;45.088;7.658;2023-10-19T05:34:36;97746.50;;;9.94;100.00
74798;BME280;63326;45.088;7.658;2023-10-19T05:37:03;97728.94;;;9.92;100.00
74798;BME280;63326;45.088;7.658;2023-10-19T05:39:32;97690.38;;;9.80;100.00
74798;BME280;63326;45.088;7.658;2023-10-19T05:42:00;97696.78;;;9.85;100.00
74798;BME280;63326;45.088;7.658;2023-10-19T05:44:31;97752.66;;;10.15;100.00
74798;BME280;63326;45.088;7.658;2023-10-19T05:46:59;97720.72;;;9.93;100.00
74798;BME280;63326;45.088;7.658;2023-10-19T05:49:26;97696.97;;;10.04;100.00
74798;BME280;63326;45.088;7.658;2023-10-19T05:51:56;97722.13;;;10.16;100.00
74798;BME280;63326;45.088;7.658;2023-10-19T05:54:22;97745.03;;;10.25;100.00
74798;BME280;63326;45.088;7.658;2023-10-19T05:56:51;97710.38;;;10.04;100.00
74798;BME280;63326;45.088;7.658;2023-10-19T05:59:19;97705.63;;;9.92;100.00
74798;BME280;63326;45.088;7.658;2023-10-19T06:01:47;97763.59;;;10.20;100.00
74798;BME280;63326;45.088;7.658;2023-10-19T06:04:15;97777.81;;;10.20;100.00
74798;BME280;63326;45.088;7.658;2023-10-19T06:06:46;97713.28;;;9.95;100.00
74798;BME280;63326;45.088;7.658;2023-10-19T06:09:14;97760.09;;;10.19;100.00
74798;BME280;63326;45.088;7.658;2023-10-19T06:11:42;97716.16;;;9.94;100.00
74798;BME280;63326;45.088;7.658;2023-10-19T06:14:10;97764.19;;;10.22;100.00
74798;BME280;63326;45.088;7.658;2023-10-19T06:16:36;97768.34;;;10.24;100.00
74798;BME280;63326;45.088;7.658;2023-10-19T06:19:04;97751.84;;;10.14;100.00
74798;BME280;63326;45.088;7.658;2023-10-19T06:21:32;97719.84;;;10.00;100.00
74798;BME280;63326;45.088;7.658;2023-10-19T06:24:00;97762.34;;;10.29;100.00
74798;BME280;63326;45.088;7.658;2023-10-19T06:26:28;97733.25;;;10.19;100.00
74798;BME280;63326;45.088;7.658;2023-10-19T06:28:55;97729.97;;;10.11;100.00
74798;BME280;63326;45.088;7.658;2023-10-19T06:31:30;97738.63;;;10.13;100.00
74798;BME280;63326;45.088;7.658;2023-10-19T06:33:57;97725.84;;;10.08;100.00
74798;BME280;63326;45.088;7.658;2023-10-19T06:36:25;97743.16;;;10.19;100.00
74798;BME280;63326;45.088;7.658;2023-10-19T06:38:52;97716.16;;;10.07;100.00
74798;BME280;63326;45.088;7.658;2023-10-19T06:41:21;97725.03;;;10.14;100.00
74798;BME280;63326;45.088;7.658;2023-10-19T06:43:49;97765.41;;;10.46;100.00
74798;BME280;63326;45.088;7.658;2023-10-19T06:46:16;97720.88;;;10.18;100.00
74798;BME280;63326;45.088;7.658;2023-10-19T06:48:43;97759.19;;;10.52;100.00
74798;BME280;63326;45.088;7.658;2023-10-19T06:51:11;97768.50;;;10.56;100.00
74798;BME280;63326;45.088;7.658;2023-10-19T06:53:38;97729.94;;;10.31;100.00
74798;BME280;63326;45.088;7.658;2023-10-19T06:56:05;97721.28;;;10.29;100.00
74798;BME280;63326;45.088;7.658;2023-10-19T06:58:33;97739.84;;;10.37;100.00
74798;BME280;63326;45.088;7.658;2023-10-19T07:01:01;97725.00;;;10.28;100.00
74798;BME280;63326;45.088;7.658;2023-10-19T07:03:34;97767.25;;;10.59;100.00
74798;BME280;63326;45.088;7.658;2023-10-19T07:06:00;97748.06;;;10.55;100.00
74798;BME280;63326;45.088;7.658;2023-10-19T07:08:35;97714.88;;;10.36;100.00
74798;BME280;63326;45.088;7.658;2023-10-19T07:11:02;97703.53;;;10.28;100.00
74798;BME280;63326;45.088;7.658;2023-10-19T07:13:29;97701.84;;;10.33;100.00
74798;BME280;63326;45.088;7.658;2023-10-19T07:16:00;97727.38;;;10.62;100.00
74798;BME280;63326;45.088;7.658;2023-10-19T07:18:26;97705.50;;;10.52;100.00
74798;BME280;63326;45.088;7.658;2023-10-19T07:20:55;97693.56;;;10.54;100.00
74798;BME280;63326;45.088;7.658;2023-10-19T07:23:29;97671.88;;;10.49;100.00
74798;BME280;63326;45.088;7.658;2023-10-19T07:25:56;97716.59;;;10.75;100.00
74798;BME280;63326;45.088;7.658;2023-10-19T07:28:26;97675.59;;;10.48;100.00
74798;BME280;63326;45.088;7.658;2023-10-19T07:30:54;97736.34;;;11.01;100.00
74798;BME280;63326;45.088;7.658;2023-10-19T07:33:21;97700.84;;;10.92;100.00
74798;BME280;63326;45.088;7.658;2023-10-19T07:35:51;97746.69;;;11.42;100.00
74798;BME280;63326;45.088;7.658;2023-10-19T07:38:22;97754.00;;;11.60;100.00
74798;BME280;63326;45.088;7.658;2023-10-19T07:40:49;97731.16;;;11.44;100.00
74798;BME280;63326;45.088;7.658;2023-10-19T07:43:20;97766.91;;;11.76;100.00
74798;BME280;63326;45.088;7.658;2023-10-19T07:45:47;97763.47;;;11.69;100.00
74798;BME280;63326;45.088;7.658;2023-10-19T07:48:14;97697.22;;;11.11;100.00
74798;BME280;63326;45.088;7.658;2023-10-19T07:50:41;97696.38;;;11.18;100.00
74798;BME280;63326;45.088;7.658;2023-10-19T07:53:09;97727.03;;;11.42;100.00
74798;BME280;63326;45.088;7.658;2023-10-19T07:55:36;97693.75;;;11.04;100.00
74798;BME280;63326;45.088;7.658;2023-10-19T07:58:05;97749.16;;;11.44;100.00
74798;BME280;63326;45.088;7.658;2023-10-19T08:00:35;97674.91;;;11.11;100.00
74798;BME280;63326;45.088;7.658;2023-10-19T08:03:03;97688.00;;;11.32;100.00
74798;BME280;63326;45.088;7.658;2023-10-19T08:05:32;97662.53;;;11.42;100.00
74798;BME280;63326;45.088;7.658;2023-10-19T08:08:01;97685.81;;;11.79;100.00
74798;BME280;63326;45.088;7.658;2023-10-19T08:10:33;97676.53;;;12.00;98.10
74798;BME280;63326;45.088;7.658;2023-10-19T08:13:03;97691.69;;;12.19;97.11
74798;BME280;63326;45.088;7.658;2023-10-19T08:15:31;97653.88;;;12.08;95.99
74798;BME280;63326;45.088;7.658;2023-10-19T08:17:58;97674.13;;;12.53;96.11
74798;BME280;63326;45.088;7.658;2023-10-19T08:20:25;97702.03;;;13.07;92.23
74798;BME280;63326;45.088;7.658;2023-10-19T08:22:59;97706.09;;;13.28;91.40
74798;BME280;63326;45.088;7.658;2023-10-19T08:25:28;97672.59;;;12.94;93.29
74798;BME280;63326;45.088;7.658;2023-10-19T08:28:13;97703.09;;;13.06;97.21
74798;BME280;63326;45.088;7.658;2023-10-19T08:30:41;97633.72;;;12.53;97.82
74798;BME280;63326;45.088;7.658;2023-10-19T08:33:10;97691.53;;;12.88;100.00
74798;BME280;63326;45.088;7.658;2023-10-19T08:35:49;97701.63;;;12.92;100.00
74798;BME280;63326;45.088;7.658;2023-10-19T08:38:17;97678.38;;;12.61;100.00
74798;BME280;63326;45.088;7.658;2023-10-19T08:40:43;97650.03;;;12.22;100.00
74798;BME280;63326;45.088;7.658;2023-10-19T08:43:10;97696.56;;;12.47;100.00
74798;BME280;63326;45.088;7.658;2023-10-19T08:45:41;97657.59;;;12.07;100.00
74798;BME280;63326;45.088;7.658;2023-10-19T08:48:08;97742.69;;;12.33;100.00
74798;BME280;63326;45.088;7.658;2023-10-19T08:50:36;97712.09;;;12.02;100.00
74798;BME280;63326;45.088;7.658;2023-10-19T08:53:05;97734.59;;;12.08;100.00
74798;BME280;63326;45.088;7.658;2023-10-19T08:55:35;97699.97;;;11.68;100.00
74798;BME280;63326;45.088;7.658;2023-10-19T08:58:16;97727.72;;;11.87;100.00
74798;BME280;63326;45.088;7.658;2023-10-19T09:00:49;97722.31;;;11.93;100.00
74798;BME280;63326;45.088;7.658;2023-10-19T09:03:18;97649.91;;;11.42;100.00
74798;BME280;63326;45.088;7.658;2023-10-19T09:05:45;97705.56;;;11.91;100.00
74798;BME280;63326;45.088;7.658;2023-10-19T09:08:17;97674.00;;;11.80;100.00
74798;BME280;63326;45.088;7.658;2023-10-19T09:10:45;97687.81;;;12.09;100.00
74798;BME280;63326;45.088;7.658;2023-10-19T09:13:13;97671.38;;;11.98;100.00
74798;BME280;63326;45.088;7.658;2023-10-19T09:15:42;97680.91;;;12.19;99.23
74798;BME280;63326;45.088;7.658;2023-10-19T09:20:44;97639.50;;;12.20;97.36
74798;BME280;63326;45.088;7.658;2023-10-19T09:23:23;97676.22;;;12.51;95.38
74798;BME280;63326;45.088;7.658;2023-10-19T09:25:52;97677.19;;;12.57;94.58
74798;BME280;63326;45.088;7.658;2023-10-19T09:28:22;97667.69;;;12.54;94.74
74798;BME280;63326;45.088;7.658;2023-10-19T09:30:51;97597.25;;;12.39;92.85
74798;BME280;63326;45.088;7.658;2023-10-19T09:33:20;97657.41;;;12.81;91.57
74798;BME280;63326;45.088;7.658;2023-10-19T09:35:49;97636.72;;;12.64;93.29
74798;BME280;63326;45.088;7.658;2023-10-19T09:38:20;97631.84;;;12.72;92.39
74798;BME280;63326;45.088;7.658;2023-10-19T09:40:53;97641.66;;;12.97;91.45
74798;BME280;63326;45.088;7.658;2023-10-19T09:43:47;97642.06;;;13.12;89.38
74798;BME280;63326;45.088;7.658;2023-10-19T09:46:35;97661.66;;;13.49;87.78
74798;BME280;63326;45.088;7.658;2023-10-19T09:49:05;97647.59;;;13.47;88.08
74798;BME280;63326;45.088;7.658;2023-10-19T09:51:33;97651.84;;;13.66;87.39
74798;BME280;63326;45.088;7.658;2023-10-19T09:56:54;97590.25;;;13.75;84.81
74798;BME280;63326;45.088;7.658;2023-10-19T09:59:38;97612.19;;;13.90;84.09
74798;BME280;63326;45.088;7.658;2023-10-19T10:02:12;97619.00;;;13.93;84.14
74798;BME280;63326;45.088;7.658;2023-10-19T10:04:42;97630.16;;;13.96;85.11
74798;BME280;63326;45.088;7.658;2023-10-19T10:07:12;97661.59;;;14.26;86.15
74798;BME280;63326;45.088;7.658;2023-10-19T10:09:43;97658.66;;;13.81;91.11
74798;BME280;63326;45.088;7.658;2023-10-19T10:12:20;97647.81;;;14.74;85.71
74798;BME280;63326;45.088;7.658;2023-10-19T10:17:38;97660.41;;;13.87;88.67
74798;BME280;63326;45.088;7.658;2023-10-19T10:22:40;97618.19;;;14.04;85.65
74798;BME280;63326;45.088;7.658;2023-10-19T10:25:27;97638.38;;;14.13;87.76
74798;BME280;63326;45.088;7.658;2023-10-19T10:27:55;97609.59;;;14.71;84.06
74798;BME280;63326;45.088;7.658;2023-10-19T10:30:22;97662.91;;;15.61;80.51
74798;BME280;63326;45.088;7.658;2023-10-19T10:32:51;97584.84;;;15.36;77.49
74798;BME280;63326;45.088;7.658;2023-10-19T10:38:07;97571.06;;;15.54;75.90
74798;BME280;63326;45.088;7.658;2023-10-19T10:40:49;97567.94;;;13.91;85.34
74798;BME280;63326;45.088;7.658;2023-10-19T10:43:18;97408.63;;;13.86;81.64
74798;BME280;63326;45.088;7.658;2023-10-19T10:45:52;97423.34;;;14.98;76.23
74798;BME280;63326;45.088;7.658;2023-10-19T10:48:19;97541.56;;;16.30;72.49
74798;BME280;63326;45.088;7.658;2023-10-19T10:50:46;97586.88;;;15.29;78.21
74798;BME280;63326;45.088;7.658;2023-10-19T10:53:14;97481.41;;;13.69;83.58
74798;BME280;63326;45.088;7.658;2023-10-19T10:55:44;97543.38;;;14.56;82.17
74798;BME280;63326;45.088;7.658;2023-10-19T10:58:15;97528.69;;;15.43;77.49
74798;BME280;63326;45.088;7.658;2023-10-19T11:00:43;97513.94;;;15.17;77.30
74798;BME280;63326;45.088;7.658;2023-10-19T11:03:11;97514.59;;;15.96;73.04
74798;BME280;63326;45.088;7.658;2023-10-19T11:05:38;97572.56;;;16.83;70.65
74798;BME280;63326;45.088;7.658;2023-10-19T11:08:13;97526.72;;;16.81;68.34
74798;BME280;63326;45.088;7.658;2023-10-19T11:10:42;97517.06;;;16.42;68.01
74798;BME280;63326;45.088;7.658;2023-10-19T11:13:11;97504.53;;;16.63;68.27
74798;BME280;63326;45.088;7.658;2023-10-19T11:15:39;97514.91;;;16.44;69.08
74798;BME280;63326;45.088;7.658;2023-10-19T11:18:06;97496.78;;;16.01;70.45
74798;BME280;63326;45.088;7.658;2023-10-19T11:20:34;97500.03;;;16.24;70.38
74798;BME280;63326;45.088;7.658;2023-10-19T11:23:02;97496.91;;;16.11;70.89
74798;BME280;63326;45.088;7.658;2023-10-19T11:25:30;97544.31;;;16.13;72.08
74798;BME280;63326;45.088;7.658;2023-10-19T11:28:00;97577.09;;;16.34;71.54
74798;BME280;63326;45.088;7.658;2023-10-19T11:30:29;97518.28;;;14.84;77.29
74798;BME280;63326;45.088;7.658;2023-10-19T11:32:58;97502.41;;;13.32;86.28
74798;BME280;63326;45.088;7.658;2023-10-19T11:35:31;97565.41;;;13.73;89.01
74798;BME280;63326;45.088;7.658;2023-10-19T11:37:59;97544.25;;;14.05;86.88
74798;BME280;63326;45.088;7.658;2023-10-19T11:40:27;97526.03;;;14.01;85.44
74798;BME280;63326;45.088;7.658;2023-10-19T11:42:54;97515.75;;;13.86;86.14
74798;BME280;63326;45.088;7.658;2023-10-19T11:45:25;97499.13;;;13.42;88.29
74798;BME280;63326;45.088;7.658;2023-10-19T11:47:53;97545.16;;;14.22;85.81
74798;BME280;63326;45.088;7.658;2023-10-19T11:50:20;97482.44;;;14.20;83.39
74798;BME280;63326;45.088;7.658;2023-10-19T11:52:46;97512.03;;;14.84;80.04
74798;BME280;63326;45.088;7.658;2023-10-19T11:55:14;97540.00;;;15.40;77.64
74798;BME280;63326;45.088;7.658;2023-10-19T11:57:44;97486.91;;;15.00;77.26
74798;BME280;63326;45.088;7.658;2023-10-19T12:00:12;97521.50;;;14.30;84.87
74798;BME280;63326;45.088;7.658;2023-10-19T12:02:40;97463.53;;;14.77;80.76
74798;BME280;63326;45.088;7.658;2023-10-19T12:05:10;97484.06;;;13.93;85.25
74798;BME280;63326;45.088;7.658;2023-10-19T12:07:37;97492.19;;;13.34;90.07
74798;BME280;63326;45.088;7.658;2023-10-19T12:10:06;97513.56;;;13.48;93.35
74798;BME280;63326;45.088;7.658;2023-10-19T12:12:35;97479.41;;;13.30;92.79
74798;BME280;63326;45.088;7.658;2023-10-19T12:15:20;97480.47;;;13.76;89.67
74798;BME280;63326;45.088;7.658;2023-10-19T12:17:49;97467.34;;;14.08;87.38
74798;BME280;63326;45.088;7.658;2023-10-19T12:20:17;97444.84;;;13.62;88.88
74798;BME280;63326;45.088;7.658;2023-10-19T12:22:49;97449.63;;;13.60;89.05
74798;BME280;63326;45.088;7.658;2023-10-19T12:25:20;97456.69;;;13.49;91.27
74798;BME280;63326;45.088;7.658;2023-10-19T12:28:02;97423.34;;;12.62;95.48
74798;BME280;63326;45.088;7.658;2023-10-19T12:30:31;97416.31;;;12.49;96.48
74798;BME280;63326;45.088;7.658;2023-10-19T12:33:05;97419.81;;;12.49;97.74
74798;BME280;63326;45.088;7.658;2023-10-19T12:35:42;97458.88;;;12.70;98.03
74798;BME280;63326;45.088;7.658;2023-10-19T12:38:12;97451.97;;;12.86;96.46
74798;BME280;63326;45.088;7.658;2023-10-19T12:40:45;97443.53;;;12.94;95.18
74798;BME280;63326;45.088;7.658;2023-10-19T12:43:17;97426.63;;;12.64;96.59
74798;BME280;63326;45.088;7.658;2023-10-19T12:45:51;97413.53;;;13.26;93.97
74798;BME280;63326;45.088;7.658;2023-10-19T12:48:21;97417.16;;;13.43;91.35
74798;BME280;63326;45.088;7.658;2023-10-19T12:50:48;97405.56;;;13.07;93.50
74798;BME280;63326;45.088;7.658;2023-10-19T12:53:15;97478.84;;;13.63;93.05
74798;BME280;63326;45.088;7.658;2023-10-19T12:55:45;97455.59;;;13.74;90.24
74798;BME280;63326;45.088;7.658;2023-10-19T12:58:11;97418.13;;;12.90;93.74
74798;BME280;63326;45.088;7.658;2023-10-19T13:00:41;97406.22;;;12.44;97.46
74798;BME280;63326;45.088;7.658;2023-10-19T13:03:11;97438.72;;;12.73;97.79
74798;BME280;63326;45.088;7.658;2023-10-19T13:05:43;97402.16;;;12.53;97.75
74798;BME280;63326;45.088;7.658;2023-10-19T13:08:14;97408.16;;;13.02;95.35
74798;BME280;63326;45.088;7.658;2023-10-19T13:10:43;97394.56;;;13.09;93.12
74798;BME280;63326;45.088;7.658;2023-10-19T13:13:11;97409.09;;;12.96;93.32
74798;BME280;63326;45.088;7.658;2023-10-19T13:15:41;97442.59;;;13.59;91.97
74798;BME280;63326;45.088;7.658;2023-10-19T13:18:09;97374.16;;;12.54;95.55
74798;BME280;63326;45.088;7.658;2023-10-19T13:20:37;97402.38;;;12.52;98.00
74798;BME280;63326;45.088;7.658;2023-10-19T13:23:06;97442.72;;;13.05;96.47
74798;BME280;63326;45.088;7.658;2023-10-19T13:25:34;97439.94;;;13.12;95.14
74798;BME280;63326;45.088;7.658;2023-10-19T13:28:27;97389.75;;;12.52;97.42
74798;BME280;63326;45.088;7.658;2023-10-19T13:30:54;97348.53;;;12.52;96.07
74798;BME280;63326;45.088;7.658;2023-10-19T13:33:22;97409.22;;;12.90;97.17
74798;BME280;63326;45.088;7.658;2023-10-19T13:35:50;97403.81;;;13.25;95.77